地図

経路データ

SID SEASON NUMBER BASIN SUBBASIN NAME ISO_TIME NATURE LAT LON WMO_WIND WMO_PRES WMO_AGENCY TRACK_TYPE DIST2LAND LANDFALL IFLAG USA_AGENCY USA_ATCF_ID USA_LAT USA_LON USA_RECORD USA_STATUS USA_WIND USA_PRES USA_SSHS USA_R34_NE USA_R34_SE USA_R34_SW USA_R34_NW USA_R50_NE USA_R50_SE USA_R50_SW USA_R50_NW USA_R64_NE USA_R64_SE USA_R64_SW USA_R64_NW USA_POCI USA_ROCI USA_RMW USA_EYE TOKYO_LAT TOKYO_LON TOKYO_GRADE TOKYO_WIND TOKYO_PRES TOKYO_R50_DIR TOKYO_R50_LONG TOKYO_R50_SHORT TOKYO_R30_DIR TOKYO_R30_LONG TOKYO_R30_SHORT TOKYO_LAND CMA_LAT CMA_LON CMA_CAT CMA_WIND CMA_PRES HKO_LAT HKO_LON HKO_CAT HKO_WIND HKO_PRES NEWDELHI_LAT NEWDELHI_LON NEWDELHI_GRADE NEWDELHI_WIND NEWDELHI_PRES NEWDELHI_CI NEWDELHI_DP NEWDELHI_POCI REUNION_LAT REUNION_LON REUNION_TYPE REUNION_WIND REUNION_PRES REUNION_TNUM REUNION_CI REUNION_RMW REUNION_R34_NE REUNION_R34_SE REUNION_R34_SW REUNION_R34_NW REUNION_R50_NE REUNION_R50_SE REUNION_R50_SW REUNION_R50_NW REUNION_R64_NE REUNION_R64_SE REUNION_R64_SW REUNION_R64_NW BOM_LAT BOM_LON BOM_TYPE BOM_WIND BOM_PRES BOM_TNUM BOM_CI BOM_RMW BOM_R34_NE BOM_R34_SE BOM_R34_SW BOM_R34_NW BOM_R50_NE BOM_R50_SE BOM_R50_SW BOM_R50_NW BOM_R64_NE BOM_R64_SE BOM_R64_SW BOM_R64_NW BOM_ROCI BOM_POCI BOM_EYE BOM_POS_METHOD BOM_PRES_METHOD NADI_LAT NADI_LON NADI_CAT NADI_WIND NADI_PRES WELLINGTON_LAT WELLINGTON_LON WELLINGTON_WIND WELLINGTON_PRES DS824_LAT DS824_LON DS824_STAGE DS824_WIND DS824_PRES TD9636_LAT TD9636_LON TD9636_STAGE TD9636_WIND TD9636_PRES TD9635_LAT TD9635_LON TD9635_WIND TD9635_PRES TD9635_ROCI NEUMANN_LAT NEUMANN_LON NEUMANN_CLASS NEUMANN_WIND NEUMANN_PRES MLC_LAT MLC_LON MLC_CLASS MLC_WIND MLC_PRES USA_GUST BOM_GUST BOM_GUST_PER REUNION_GUST REUNION_GUST_PER USA_SEAHGT USA_SEARAD_NE USA_SEARAD_SE USA_SEARAD_SW USA_SEARAD_NW STORM_SPEED STORM_DIR
1858305S26053 1859 19 SI MM NOT_NAMED 1858-10-31 18:00:00 NR -25.5000 52.6000 main 541 539 __________O___ -1 -25.5000 52.6000 7 5 129
1858305S26053 1859 19 SI MM NOT_NAMED 1858-10-31 21:00:00 NR -25.6717 52.8315 main 553 549 __________P___ -1 -25.6717 52.8315 7 6 129
1858305S26053 1859 19 SI MM NOT_NAMED 1858-11-01 00:00:00 NR -25.8546 53.0806 main 560 556 __________P___ -1 -25.8546 53.0806 7 6 129
1858305S26053 1859 19 SI MM NOT_NAMED 1858-11-01 03:00:00 NR -26.0603 53.3643 main 570 566 __________P___ -1 -26.0603 53.3643 7 7 129
1858305S26053 1859 19 SI MM NOT_NAMED 1858-11-01 06:00:00 NR -26.3000 53.7000 main 580 577 __________O___ -1 -26.3000 53.7000 7 8 128
1858305S26053 1859 19 SI MM NOT_NAMED 1858-11-01 09:00:00 NR -26.5799 54.0974 main 600 598 __________P___ -1 -26.5799 54.0974 7 9 128
1858305S26053 1859 19 SI MM NOT_NAMED 1858-11-01 12:00:00 NR -26.8857 54.5339 main 624 622 __________P___ -1 -26.8857 54.5339 7 10 128
1858305S26053 1859 19 SI MM NOT_NAMED 1858-11-01 15:00:00 NR -27.1986 54.9787 main 650 650 __________P___ -1 -27.1986 54.9787 7 10 129
1858305S26053 1859 19 SI MM NOT_NAMED 1858-11-01 18:00:00 NR -27.5000 55.4000 main 681 681 __________O___ -1 -27.5000 55.4000 7 9 130
1858305S26053 1859 19 SI MM NOT_NAMED 1858-11-01 21:00:00 NR -27.7635 55.7388 main 715 715 __________P___ -1 -27.7635 55.7388 7 8 132
1858305S26053 1859 19 SI MM NOT_NAMED 1858-11-02 00:00:00 NR -28.0137 56.0517 main 739 739 __________P___ -1 -28.0137 56.0517 7 7 132
1858305S26053 1859 19 SI MM NOT_NAMED 1858-11-02 03:00:00 NR -28.2572 56.3638 main 775 775 __________P___ -1 -28.2572 56.3638 7 8 130
1858305S26053 1859 19 SI MM NOT_NAMED 1858-11-02 06:00:00 NR -28.5000 56.7000 main 800 800 __________O___ -1 -28.5000 56.7000 7 8 127
1858305S26053 1859 19 SI MM NOT_NAMED 1858-11-02 09:00:00 NR -28.7501 57.1005 main 840 840 __________P___ -1 -28.7501 57.1005 7 9 125
1858305S26053 1859 19 SI MM NOT_NAMED 1858-11-02 12:00:00 NR -29.0001 57.5278 main 870 870 __________P___ -1 -29.0001 57.5278 7 9 123
1858305S26053 1859 19 SI MM NOT_NAMED 1858-11-02 15:00:00 NR -29.2500 57.9662 main 914 914 __________P___ -1 -29.2500 57.9662 7 9 123
1858305S26053 1859 19 SI MM NOT_NAMED 1858-11-02 18:00:00 NR -29.5000 58.4000 main 947 947 __________O___ -1 -29.5000 58.4000 7 9 124
1858305S26053 1859 19 SI MM NOT_NAMED 1858-11-02 21:00:00 NR -29.7502 58.8168 main 991 991 __________P___ -1 -29.7502 58.8168 7 9 125
1858305S26053 1859 19 SI MM NOT_NAMED 1858-11-03 00:00:00 NR -30.0005 59.2187 main 1025 1025 __________P___ -1 -30.0005 59.2187 7 9 126
1858305S26053 1859 19 SI MM NOT_NAMED 1858-11-03 03:00:00 NR -30.2506 59.6112 main 1071 1071 __________P___ -1 -30.2506 59.6112 7 8 127
1858305S26053 1859 19 SI MM NOT_NAMED 1858-11-03 06:00:00 NR -30.5000 60.0000 main 1107 __________O___ -1 -30.5000 60.0000 7 8 127

IBTrACS Databaseについて

本データベースは、米国NOAAが公開する1842年以降の世界の熱帯低気圧のベストトラックデータアーカイブInternational Best Track Archive for Climate Stewardship (IBTrACS)を、ウェブで閲覧しやすい形式に変換したものです。

最終更新日:2021-11-26